sensor_id;sensor_type;location;lat;lon;timestamp;pressure;altitude;pressure_sealevel;temperature;humidity
54816;BME280;40715;55.752;37.884;2023-11-18T00:00:56;99788.47;;;28.58;26.53
54816;BME280;40715;55.752;37.884;2023-11-18T00:03:23;99792.88;;;28.59;26.39
54816;BME280;40715;55.752;37.884;2023-11-18T00:05:50;99788.31;;;28.59;26.45
54816;BME280;40715;55.752;37.884;2023-11-18T00:08:17;99788.59;;;28.56;26.67
54816;BME280;40715;55.752;37.884;2023-11-18T00:10:43;99793.03;;;28.57;26.33
54816;BME280;40715;55.752;37.884;2023-11-18T00:13:10;99801.00;;;28.59;26.51
54816;BME280;40715;55.752;37.884;2023-11-18T00:15:37;99797.56;;;28.57;26.39
54816;BME280;40715;55.752;37.884;2023-11-18T00:18:04;99799.28;;;28.58;26.49
54816;BME280;40715;55.752;37.884;2023-11-18T00:20:31;99804.00;;;28.56;26.63
54816;BME280;40715;55.752;37.884;2023-11-18T00:22:58;99805.00;;;28.55;26.63
54816;BME280;40715;55.752;37.884;2023-11-18T00:25:25;99806.59;;;28.57;26.82
54816;BME280;40715;55.752;37.884;2023-11-18T00:27:52;99812.00;;;28.57;26.64
54816;BME280;40715;55.752;37.884;2023-11-18T00:30:19;99809.28;;;28.57;26.59
54816;BME280;40715;55.752;37.884;2023-11-18T00:32:46;99811.13;;;28.57;26.54
54816;BME280;40715;55.752;37.884;2023-11-18T00:35:13;99814.00;;;28.55;26.53
54816;BME280;40715;55.752;37.884;2023-11-18T00:37:41;99816.56;;;28.57;26.63
54816;BME280;40715;55.752;37.884;2023-11-18T00:40:08;99818.28;;;28.58;26.54
54816;BME280;40715;55.752;37.884;2023-11-18T00:42:36;99820.00;;;28.59;26.51
54816;BME280;40715;55.752;37.884;2023-11-18T00:45:03;99821.16;;;28.66;26.61
54816;BME280;40715;55.752;37.884;2023-11-18T00:47:32;99811.41;;;28.73;26.46
54816;BME280;40715;55.752;37.884;2023-11-18T00:49:59;99817.41;;;28.67;26.32
54816;BME280;40715;55.752;37.884;2023-11-18T00:52:32;99814.00;;;28.65;26.46
54816;BME280;40715;55.752;37.884;2023-11-18T00:54:59;99817.56;;;28.66;26.42
54816;BME280;40715;55.752;37.884;2023-11-18T00:57:31;99812.00;;;28.67;26.48
54816;BME280;40715;55.752;37.884;2023-11-18T00:59:58;99827.41;;;28.67;26.49
54816;BME280;40715;55.752;37.884;2023-11-18T01:02:25;99814.53;;;28.69;26.48
54816;BME280;40715;55.752;37.884;2023-11-18T01:04:53;99822.69;;;28.69;26.43
54816;BME280;40715;55.752;37.884;2023-11-18T01:07:20;99818.81;;;28.71;26.33
54816;BME280;40715;55.752;37.884;2023-11-18T01:09:47;99819.69;;;28.72;26.32
54816;BME280;40715;55.752;37.884;2023-11-18T01:12:15;99821.38;;;28.73;26.37
54816;BME280;40715;55.752;37.884;2023-11-18T01:14:42;99826.81;;;28.73;26.09
54816;BME280;40715;55.752;37.884;2023-11-18T01:17:09;99834.09;;;28.72;26.35
54816;BME280;40715;55.752;37.884;2023-11-18T01:19:36;99825.81;;;28.74;26.42
54816;BME280;40715;55.752;37.884;2023-11-18T01:22:03;99827.38;;;28.77;26.24
54816;BME280;40715;55.752;37.884;2023-11-18T01:24:32;99825.66;;;28.75;26.25
54816;BME280;40715;55.752;37.884;2023-11-18T01:27:00;99831.97;;;28.76;26.39
54816;BME280;40715;55.752;37.884;2023-11-18T01:29:27;99843.66;;;28.77;26.08
54816;BME280;40715;55.752;37.884;2023-11-18T01:31:54;99828.22;;;28.77;26.22
54816;BME280;40715;55.752;37.884;2023-11-18T01:34:23;99828.22;;;28.77;26.28
54816;BME280;40715;55.752;37.884;2023-11-18T01:36:50;99836.38;;;28.77;26.17
54816;BME280;40715;55.752;37.884;2023-11-18T01:39:17;99840.94;;;28.77;26.08
54816;BME280;40715;55.752;37.884;2023-11-18T01:41:45;99844.50;;;28.77;26.19
54816;BME280;40715;55.752;37.884;2023-11-18T01:44:12;99837.09;;;28.79;26.13
54816;BME280;40715;55.752;37.884;2023-11-18T01:46:42;99838.94;;;28.79;26.13
54816;BME280;40715;55.752;37.884;2023-11-18T01:49:13;99836.38;;;28.77;26.22
54816;BME280;40715;55.752;37.884;2023-11-18T01:51:42;99838.22;;;28.77;26.04
54816;BME280;40715;55.752;37.884;2023-11-18T01:54:11;99832.66;;;28.78;26.17
54816;BME280;40715;55.752;37.884;2023-11-18T01:56:43;99823.69;;;28.78;26.14
54816;BME280;40715;55.752;37.884;2023-11-18T01:59:13;99829.09;;;28.78;26.14
54816;BME280;40715;55.752;37.884;2023-11-18T02:01:50;99828.22;;;28.77;26.19
54816;BME280;40715;55.752;37.884;2023-11-18T02:04:19;99834.69;;;28.76;26.17
54816;BME280;40715;55.752;37.884;2023-11-18T02:06:49;99835.53;;;28.77;26.15
54816;BME280;40715;55.752;37.884;2023-11-18T02:09:18;99832.66;;;28.78;26.31
54816;BME280;40715;55.752;37.884;2023-11-18T02:11:53;99831.53;;;28.81;26.13
54816;BME280;40715;55.752;37.884;2023-11-18T02:14:26;99834.38;;;28.79;26.23
54816;BME280;40715;55.752;37.884;2023-11-18T02:16:56;99843.50;;;28.78;26.20
54816;BME280;40715;55.752;37.884;2023-11-18T02:19:24;99841.63;;;28.79;26.29
54816;BME280;40715;55.752;37.884;2023-11-18T02:21:52;99838.22;;;28.77;26.21
54816;BME280;40715;55.752;37.884;2023-11-18T02:24:25;99835.66;;;28.75;26.43
54816;BME280;40715;55.752;37.884;2023-11-18T02:26:56;99841.41;;;28.72;26.25
54816;BME280;40715;55.752;37.884;2023-11-18T02:29:24;99838.09;;;28.68;26.29
54816;BME280;40715;55.752;37.884;2023-11-18T02:31:58;99842.81;;;28.66;26.42
54816;BME280;40715;55.752;37.884;2023-11-18T02:34:30;99834.84;;;28.65;26.50
54816;BME280;40715;55.752;37.884;2023-11-18T02:37:00;99846.53;;;28.65;26.59
54816;BME280;40715;55.752;37.884;2023-11-18T02:39:41;99844.81;;;28.64;26.58
54816;BME280;40715;55.752;37.884;2023-11-18T02:42:10;99842.09;;;28.64;26.10
54816;BME280;40715;55.752;37.884;2023-11-18T02:44:40;99843.50;;;28.58;26.62
54816;BME280;40715;55.752;37.884;2023-11-18T02:47:08;99846.06;;;28.60;26.58
54816;BME280;40715;55.752;37.884;2023-11-18T02:49:37;99843.66;;;28.57;26.62
54816;BME280;40715;55.752;37.884;2023-11-18T02:52:04;99841.38;;;28.52;26.71
54816;BME280;40715;55.752;37.884;2023-11-18T02:54:31;99842.22;;;28.53;26.69
54816;BME280;40715;55.752;37.884;2023-11-18T02:56:58;99841.38;;;28.52;26.67
54816;BME280;40715;55.752;37.884;2023-11-18T02:59:26;99843.38;;;28.50;26.69
54816;BME280;40715;55.752;37.884;2023-11-18T03:01:56;99840.66;;;28.50;26.84
54816;BME280;40715;55.752;37.884;2023-11-18T03:04:23;99846.97;;;28.51;26.63
54816;BME280;40715;55.752;37.884;2023-11-18T03:06:50;99838.09;;;28.49;26.71
54816;BME280;40715;55.752;37.884;2023-11-18T03:09:17;99841.81;;;28.48;26.74
54816;BME280;40715;55.752;37.884;2023-11-18T03:11:45;99845.38;;;28.48;26.58
54816;BME280;40715;55.752;37.884;2023-11-18T03:14:12;99845.69;;;28.45;26.72
54816;BME280;40715;55.752;37.884;2023-11-18T03:16:39;99852.09;;;28.44;26.79
54816;BME280;40715;55.752;37.884;2023-11-18T03:19:06;99849.38;;;28.44;26.66
54816;BME280;40715;55.752;37.884;2023-11-18T03:21:35;99852.38;;;28.41;26.66
54816;BME280;40715;55.752;37.884;2023-11-18T03:24:03;99851.38;;;28.42;26.87
54816;BME280;40715;55.752;37.884;2023-11-18T03:26:30;99848.81;;;28.40;26.83
54816;BME280;40715;55.752;37.884;2023-11-18T03:28:58;99860.50;;;28.41;26.75
54816;BME280;40715;55.752;37.884;2023-11-18T03:31:25;99858.78;;;28.40;26.85
54816;BME280;40715;55.752;37.884;2023-11-18T03:33:53;99855.38;;;28.38;26.81
54816;BME280;40715;55.752;37.884;2023-11-18T03:36:20;99853.50;;;28.38;26.76
54816;BME280;40715;55.752;37.884;2023-11-18T03:38:47;99858.09;;;28.38;26.67
54816;BME280;40715;55.752;37.884;2023-11-18T03:41:15;99853.66;;;28.37;26.83
54816;BME280;40715;55.752;37.884;2023-11-18T03:43:42;99854.66;;;28.36;26.87
54816;BME280;40715;55.752;37.884;2023-11-18T03:46:09;99857.38;;;28.36;26.76
54816;BME280;40715;55.752;37.884;2023-11-18T03:48:37;99849.38;;;28.34;26.87
54816;BME280;40715;55.752;37.884;2023-11-18T03:51:04;99856.66;;;28.34;26.95
54816;BME280;40715;55.752;37.884;2023-11-18T03:53:31;99860.22;;;28.34;26.79
54816;BME280;40715;55.752;37.884;2023-11-18T03:56:00;99861.25;;;28.33;26.79
54816;BME280;40715;55.752;37.884;2023-11-18T03:58:28;99862.78;;;28.36;26.81
54816;BME280;40715;55.752;37.884;2023-11-18T04:00:55;99865.50;;;28.36;26.67
54816;BME280;40715;55.752;37.884;2023-11-18T04:03:24;99875.50;;;28.35;26.68
54816;BME280;40715;55.752;37.884;2023-11-18T04:05:51;99858.78;;;28.30;26.74
54816;BME280;40715;55.752;37.884;2023-11-18T04:08:18;99862.09;;;28.34;26.76
54816;BME280;40715;55.752;37.884;2023-11-18T04:10:45;99856.81;;;28.32;26.83
54816;BME280;40715;55.752;37.884;2023-11-18T04:13:12;99864.22;;;28.30;26.90
54816;BME280;40715;55.752;37.884;2023-11-18T04:15:39;99861.50;;;28.30;26.74
54816;BME280;40715;55.752;37.884;2023-11-18T04:18:06;99863.38;;;28.30;26.69
54816;BME280;40715;55.752;37.884;2023-11-18T04:20:33;99863.22;;;28.31;26.82
54816;BME280;40715;55.752;37.884;2023-11-18T04:23:00;99863.38;;;28.30;26.77
54816;BME280;40715;55.752;37.884;2023-11-18T04:25:27;99872.06;;;28.33;26.68
54816;BME280;40715;55.752;37.884;2023-11-18T04:27:54;99866.91;;;28.30;26.81
54816;BME280;40715;55.752;37.884;2023-11-18T04:30:21;99866.78;;;28.32;26.53
54816;BME280;40715;55.752;37.884;2023-11-18T04:32:48;99866.78;;;28.32;26.73
54816;BME280;40715;55.752;37.884;2023-11-18T04:35:15;99872.19;;;28.32;26.84
54816;BME280;40715;55.752;37.884;2023-11-18T04:37:42;99872.34;;;28.30;26.81
54816;BME280;40715;55.752;37.884;2023-11-18T04:40:10;99869.63;;;28.30;26.72
54816;BME280;40715;55.752;37.884;2023-11-18T04:42:38;99870.66;;;28.29;26.76
54816;BME280;40715;55.752;37.884;2023-11-18T04:45:06;99876.06;;;28.29;26.79
54816;BME280;40715;55.752;37.884;2023-11-18T04:47:36;99873.22;;;28.31;26.71
54816;BME280;40715;55.752;37.884;2023-11-18T04:50:04;99875.03;;;28.30;26.60
54816;BME280;40715;55.752;37.884;2023-11-18T04:52:32;99868.63;;;28.31;26.78
54816;BME280;40715;55.752;37.884;2023-11-18T04:55:02;99867.78;;;28.31;26.70
54816;BME280;40715;55.752;37.884;2023-11-18T04:57:30;99863.38;;;28.30;26.63
54816;BME280;40715;55.752;37.884;2023-11-18T04:59:56;99866.06;;;28.30;26.68
54816;BME280;40715;55.752;37.884;2023-11-18T05:02:23;99863.50;;;28.28;26.68
54816;BME280;40715;55.752;37.884;2023-11-18T05:04:51;99866.06;;;28.30;26.65
54816;BME280;40715;55.752;37.884;2023-11-18T05:07:18;99870.78;;;28.28;26.82
54816;BME280;40715;55.752;37.884;2023-11-18T05:09:44;99869.06;;;28.27;26.63
54816;BME280;40715;55.752;37.884;2023-11-18T05:12:11;99870.78;;;28.28;26.67
54816;BME280;40715;55.752;37.884;2023-11-18T05:14:38;99872.34;;;28.30;26.69
54816;BME280;40715;55.752;37.884;2023-11-18T05:17:05;99865.38;;;28.28;26.62
54816;BME280;40715;55.752;37.884;2023-11-18T05:19:32;99870.66;;;28.29;26.60
54816;BME280;40715;55.752;37.884;2023-11-18T05:21:59;99879.63;;;28.30;26.67
54816;BME280;40715;55.752;37.884;2023-11-18T05:24:26;99875.19;;;28.29;26.69
54816;BME280;40715;55.752;37.884;2023-11-18T05:26:53;99880.31;;;28.32;26.56
54816;BME280;40715;55.752;37.884;2023-11-18T05:29:20;99880.31;;;28.32;26.51
54816;BME280;40715;55.752;37.884;2023-11-18T05:31:47;99881.91;;;28.34;26.62
54816;BME280;40715;55.752;37.884;2023-11-18T05:34:15;99872.63;;;28.37;26.61
54816;BME280;40715;55.752;37.884;2023-11-18T05:36:41;99873.34;;;28.39;26.47
54816;BME280;40715;55.752;37.884;2023-11-18T05:39:08;99890.16;;;28.42;26.43
54816;BME280;40715;55.752;37.884;2023-11-18T05:41:36;99882.88;;;28.43;26.67
54816;BME280;40715;55.752;37.884;2023-11-18T05:44:07;99884.03;;;28.50;26.44
54816;BME280;40715;55.752;37.884;2023-11-18T05:46:36;99888.88;;;28.56;26.32
54816;BME280;40715;55.752;37.884;2023-11-18T05:49:04;99887.59;;;28.61;26.21
54816;BME280;40715;55.752;37.884;2023-11-18T05:51:35;99889.06;;;28.65;26.24
54816;BME280;40715;55.752;37.884;2023-11-18T05:54:02;99891.47;;;28.68;26.14
54816;BME280;40715;55.752;37.884;2023-11-18T05:56:29;99893.59;;;28.74;26.14
54816;BME280;40715;55.752;37.884;2023-11-18T05:58:56;99900.28;;;28.80;25.94
54816;BME280;40715;55.752;37.884;2023-11-18T06:01:23;99892.00;;;28.81;26.19
54816;BME280;40715;55.752;37.884;2023-11-18T06:03:54;99903.84;;;28.90;26.10
54816;BME280;40715;55.752;37.884;2023-11-18T06:06:21;99903.41;;;28.95;25.79
54816;BME280;40715;55.752;37.884;2023-11-18T06:08:49;99900.97;;;29.01;26.16
54816;BME280;40715;55.752;37.884;2023-11-18T06:11:17;99903.09;;;29.07;25.79
54816;BME280;40715;55.752;37.884;2023-11-18T06:13:50;99906.94;;;29.15;25.85
54816;BME280;40715;55.752;37.884;2023-11-18T06:16:19;99892.63;;;29.22;25.84
54816;BME280;40715;55.752;37.884;2023-11-18T06:18:56;99901.06;;;29.29;26.03
54816;BME280;40715;55.752;37.884;2023-11-18T06:21:26;99901.75;;;29.31;26.00
54816;BME280;40715;55.752;37.884;2023-11-18T06:23:59;99908.91;;;29.32;25.99
54816;BME280;40715;55.752;37.884;2023-11-18T06:26:27;99906.59;;;29.37;26.06
54816;BME280;40715;55.752;37.884;2023-11-18T06:28:56;99900.88;;;29.40;25.70
54816;BME280;40715;55.752;37.884;2023-11-18T06:31:23;99903.81;;;29.47;25.85
54816;BME280;40715;55.752;37.884;2023-11-18T06:33:51;99907.66;;;29.54;25.80
54816;BME280;40715;55.752;37.884;2023-11-18T06:36:19;99908.06;;;29.59;25.73
54816;BME280;40715;55.752;37.884;2023-11-18T06:38:50;99904.03;;;29.64;25.83
54816;BME280;40715;55.752;37.884;2023-11-18T06:41:20;99910.16;;;29.66;25.58
54816;BME280;40715;55.752;37.884;2023-11-18T06:43:50;99917.72;;;29.72;25.60
54816;BME280;40715;55.752;37.884;2023-11-18T06:48:53;99919.69;;;29.79;25.50
54816;BME280;40715;55.752;37.884;2023-11-18T06:51:31;99924.41;;;29.87;25.63
54816;BME280;40715;55.752;37.884;2023-11-18T06:54:02;99936.75;;;30.00;25.19
54816;BME280;40715;55.752;37.884;2023-11-18T06:56:37;99939.56;;;30.08;25.29
54816;BME280;40715;55.752;37.884;2023-11-18T06:59:05;99933.56;;;30.04;25.52
54816;BME280;40715;55.752;37.884;2023-11-18T07:01:36;99933.44;;;30.06;25.37
54816;BME280;40715;55.752;37.884;2023-11-18T07:04:04;99936.69;;;30.09;25.44
54816;BME280;40715;55.752;37.884;2023-11-18T07:06:36;99934.44;;;30.23;25.20
54816;BME280;40715;55.752;37.884;2023-11-18T07:09:08;99933.53;;;30.32;25.31
54816;BME280;40715;55.752;37.884;2023-11-18T07:11:47;99930.34;;;30.37;25.22
54816;BME280;40715;55.752;37.884;2023-11-18T07:14:15;99931.44;;;30.44;25.37
54816;BME280;40715;55.752;37.884;2023-11-18T07:16:43;99928.97;;;30.51;25.44
54816;BME280;40715;55.752;37.884;2023-11-18T07:19:11;99931.06;;;30.57;25.21
54816;BME280;40715;55.752;37.884;2023-11-18T07:21:47;99928.56;;;30.63;24.92
54816;BME280;40715;55.752;37.884;2023-11-18T07:24:16;99928.97;;;30.69;24.81
54816;BME280;40715;55.752;37.884;2023-11-18T07:26:44;99930.22;;;30.74;24.63
54816;BME280;40715;55.752;37.884;2023-11-18T07:29:12;99922.97;;;30.83;24.50
54816;BME280;40715;55.752;37.884;2023-11-18T07:31:39;99916.03;;;30.89;24.67
54816;BME280;40715;55.752;37.884;2023-11-18T07:34:06;99922.72;;;30.94;24.87
54816;BME280;40715;55.752;37.884;2023-11-18T07:36:33;99925.09;;;30.97;24.30
54816;BME280;40715;55.752;37.884;2023-11-18T07:39:01;99924.25;;;30.97;24.45
54816;BME280;40715;55.752;37.884;2023-11-18T07:41:32;99938.09;;;31.04;24.24
54816;BME280;40715;55.752;37.884;2023-11-18T07:44:00;99933.53;;;31.04;24.46
54816;BME280;40715;55.752;37.884;2023-11-18T07:46:27;99938.63;;;31.07;24.27
54816;BME280;40715;55.752;37.884;2023-11-18T07:48:57;99936.28;;;31.12;24.18
54816;BME280;40715;55.752;37.884;2023-11-18T07:51:24;99938.16;;;31.12;24.12
54816;BME280;40715;55.752;37.884;2023-11-18T07:53:51;99930.66;;;31.14;24.26
54816;BME280;40715;55.752;37.884;2023-11-18T07:56:19;99938.53;;;31.17;24.31
54816;BME280;40715;55.752;37.884;2023-11-18T07:58:49;99938.38;;;31.19;24.21
54816;BME280;40715;55.752;37.884;2023-11-18T08:01:18;99935.97;;;31.15;24.21
54816;BME280;40715;55.752;37.884;2023-11-18T08:03:48;99947.00;;;31.14;24.37
54816;BME280;40715;55.752;37.884;2023-11-18T08:06:18;99945.16;;;31.14;24.40
54816;BME280;40715;55.752;37.884;2023-11-18T08:08:45;99952.16;;;31.17;24.49
54816;BME280;40715;55.752;37.884;2023-11-18T08:11:12;99951.09;;;31.18;24.25
54816;BME280;40715;55.752;37.884;2023-11-18T08:13:39;99942.09;;;31.18;24.02
54816;BME280;40715;55.752;37.884;2023-11-18T08:16:07;99945.50;;;31.20;23.92
54816;BME280;40715;55.752;37.884;2023-11-18T08:18:35;99939.75;;;31.23;23.85
54816;BME280;40715;55.752;37.884;2023-11-18T08:21:03;99935.97;;;31.15;23.89
54816;BME280;40715;55.752;37.884;2023-11-18T08:23:33;99933.94;;;31.18;23.81
54816;BME280;40715;55.752;37.884;2023-11-18T08:26:01;99936.13;;;31.14;24.20
54816;BME280;40715;55.752;37.884;2023-11-18T08:28:28;99938.47;;;31.09;23.80
54816;BME280;40715;55.752;37.884;2023-11-18T08:30:55;99933.34;;;31.06;23.97
54816;BME280;40715;55.752;37.884;2023-11-18T08:33:22;99931.81;;;31.03;23.93
54816;BME280;40715;55.752;37.884;2023-11-18T08:35:52;99933.81;;;31.01;24.07
54816;BME280;40715;55.752;37.884;2023-11-18T08:38:19;99929.69;;;30.97;23.85
54816;BME280;40715;55.752;37.884;2023-11-18T08:40:47;99926.44;;;30.93;24.39
54816;BME280;40715;55.752;37.884;2023-11-18T08:43:15;99927.75;;;30.89;24.25
54816;BME280;40715;55.752;37.884;2023-11-18T08:45:43;99922.81;;;30.85;24.04
54816;BME280;40715;55.752;37.884;2023-11-18T08:48:10;99914.97;;;30.81;24.11
54816;BME280;40715;55.752;37.884;2023-11-18T08:50:37;99924.28;;;30.79;24.28
54816;BME280;40715;55.752;37.884;2023-11-18T08:53:07;99930.72;;;30.78;24.25
54816;BME280;40715;55.752;37.884;2023-11-18T08:55:37;99928.34;;;30.75;24.21
54816;BME280;40715;55.752;37.884;2023-11-18T08:58:10;99927.09;;;30.69;24.26
54816;BME280;40715;55.752;37.884;2023-11-18T09:00:52;99930.66;;;30.70;24.93
54816;BME280;40715;55.752;37.884;2023-11-18T09:03:23;99929.25;;;30.66;25.32
54816;BME280;40715;55.752;37.884;2023-11-18T09:06:05;99939.59;;;30.62;25.74
54816;BME280;40715;55.752;37.884;2023-11-18T09:11:07;99938.53;;;30.55;26.12
54816;BME280;40715;55.752;37.884;2023-11-18T09:13:34;99935.97;;;30.53;26.35
54816;BME280;40715;55.752;37.884;2023-11-18T09:16:06;99932.00;;;30.48;26.69
54816;BME280;40715;55.752;37.884;2023-11-18T09:18:42;99921.59;;;30.43;27.00
54816;BME280;40715;55.752;37.884;2023-11-18T09:21:12;99928.16;;;30.40;27.01
54816;BME280;40715;55.752;37.884;2023-11-18T09:23:42;99928.66;;;30.36;27.13
54816;BME280;40715;55.752;37.884;2023-11-18T09:26:09;99933.38;;;30.34;27.15
54816;BME280;40715;55.752;37.884;2023-11-18T09:28:37;99929.25;;;30.29;27.38
54816;BME280;40715;55.752;37.884;2023-11-18T09:31:06;99932.44;;;30.25;27.57
54816;BME280;40715;55.752;37.884;2023-11-18T09:33:39;99929.56;;;30.26;27.28
54816;BME280;40715;55.752;37.884;2023-11-18T09:36:12;99931.72;;;30.23;27.52
54816;BME280;40715;55.752;37.884;2023-11-18T09:38:40;99916.91;;;30.17;27.58
54816;BME280;40715;55.752;37.884;2023-11-18T09:41:09;99933.34;;;30.16;27.49
54816;BME280;40715;55.752;37.884;2023-11-18T09:43:41;99923.09;;;30.09;27.48
54816;BME280;40715;55.752;37.884;2023-11-18T09:46:28;99927.38;;;30.12;27.95
54816;BME280;40715;55.752;37.884;2023-11-18T09:51:44;99924.72;;;30.02;27.92
54816;BME280;40715;55.752;37.884;2023-11-18T09:54:24;99918.75;;;29.99;27.67
54816;BME280;40715;55.752;37.884;2023-11-18T10:00:11;99923.47;;;29.97;27.62
54816;BME280;40715;55.752;37.884;2023-11-18T10:02:54;99920.34;;;29.91;27.56
54816;BME280;40715;55.752;37.884;2023-11-18T10:05:23;99919.38;;;29.83;27.63
54816;BME280;40715;55.752;37.884;2023-11-18T10:07:54;99919.69;;;29.79;27.66
54816;BME280;40715;55.752;37.884;2023-11-18T10:10:21;99916.41;;;29.76;27.78
54816;BME280;40715;55.752;37.884;2023-11-18T10:12:51;99913.84;;;29.74;27.59
54816;BME280;40715;55.752;37.884;2023-11-18T10:15:31;99910.28;;;29.74;27.83
54816;BME280;40715;55.752;37.884;2023-11-18T10:17:59;99915.31;;;29.69;27.67
54816;BME280;40715;55.752;37.884;2023-11-18T10:23:07;99915.06;;;29.62;27.87
54816;BME280;40715;55.752;37.884;2023-11-18T10:25:45;99907.53;;;29.56;27.71
54816;BME280;40715;55.752;37.884;2023-11-18T10:28:30;99912.66;;;29.59;27.77
54816;BME280;40715;55.752;37.884;2023-11-18T10:31:01;99908.97;;;29.50;27.43
54816;BME280;40715;55.752;37.884;2023-11-18T10:33:36;99912.28;;;29.44;27.43
54816;BME280;40715;55.752;37.884;2023-11-18T10:36:05;99909.72;;;29.42;27.23
54816;BME280;40715;55.752;37.884;2023-11-18T10:38:40;99911.44;;;29.43;27.50
54816;BME280;40715;55.752;37.884;2023-11-18T10:41:10;99908.00;;;29.41;26.99
54816;BME280;40715;55.752;37.884;2023-11-18T10:43:38;99903.59;;;29.40;27.21
54816;BME280;40715;55.752;37.884;2023-11-18T10:46:10;99901.31;;;29.36;27.28
54816;BME280;40715;55.752;37.884;2023-11-18T10:48:45;99903.91;;;29.37;27.29
54816;BME280;40715;55.752;37.884;2023-11-18T10:51:18;99913.03;;;29.36;26.62
54816;BME280;40715;55.752;37.884;2023-11-18T10:53:51;99912.16;;;29.36;26.80
54816;BME280;40715;55.752;37.884;2023-11-18T10:56:51;99908.13;;;29.40;26.65
54816;BME280;40715;55.752;37.884;2023-11-18T10:59:23;99917.59;;;29.36;26.56
54816;BME280;40715;55.752;37.884;2023-11-18T11:01:50;99903.16;;;29.35;26.67
54816;BME280;40715;55.752;37.884;2023-11-18T11:04:18;99912.16;;;29.36;26.75
54816;BME280;40715;55.752;37.884;2023-11-18T11:06:49;99907.59;;;29.36;26.31
54816;BME280;40715;55.752;37.884;2023-11-18T11:09:20;99911.16;;;29.37;26.24
54816;BME280;40715;55.752;37.884;2023-11-18T11:11:59;99903.00;;;29.37;26.35
54816;BME280;40715;55.752;37.884;2023-11-18T11:14:32;99905.75;;;29.92;25.87
54816;BME280;40715;55.752;37.884;2023-11-18T11:17:07;99895.28;;;29.42;26.30
54816;BME280;40715;55.752;37.884;2023-11-18T11:20:05;99905.88;;;29.35;26.19
54816;BME280;40715;55.752;37.884;2023-11-18T11:26:15;99910.56;;;29.43;26.13
54816;BME280;40715;55.752;37.884;2023-11-18T11:29:07;99906.31;;;29.40;26.60
54816;BME280;40715;55.752;37.884;2023-11-18T11:31:40;99913.03;;;29.36;26.83
54816;BME280;40715;55.752;37.884;2023-11-18T11:34:18;99910.56;;;29.43;27.14
54816;BME280;40715;55.752;37.884;2023-11-18T11:36:51;99907.72;;;29.44;27.16
54816;BME280;40715;55.752;37.884;2023-11-18T11:39:21;99901.84;;;29.49;27.10
54816;BME280;40715;55.752;37.884;2023-11-18T11:41:56;99910.09;;;29.57;27.12
54816;BME280;40715;55.752;37.884;2023-11-18T11:44:26;99907.59;;;29.64;27.26
54816;BME280;40715;55.752;37.884;2023-11-18T11:46:58;99907.56;;;29.74;27.03
54816;BME280;40715;55.752;37.884;2023-11-18T11:49:34;99905.94;;;29.81;27.12
54816;BME280;40715;55.752;37.884;2023-11-18T11:52:09;99911.91;;;29.94;26.67
54816;BME280;40715;55.752;37.884;2023-11-18T11:55:07;99908.34;;;30.12;26.83
54816;BME280;40715;55.752;37.884;2023-11-18T11:57:39;99910.66;;;30.07;26.76
54816;BME280;40715;55.752;37.884;2023-11-18T12:00:10;99909.09;;;30.04;26.70
54816;BME280;40715;55.752;37.884;2023-11-18T12:02:50;99905.16;;;30.17;26.99
54816;BME280;40715;55.752;37.884;2023-11-18T12:05:30;99913.09;;;30.28;26.17
54816;BME280;40715;55.752;37.884;2023-11-18T12:08:00;99912.09;;;30.29;26.26
54816;BME280;40715;55.752;37.884;2023-11-18T12:10:30;99908.22;;;30.32;25.37
54816;BME280;40715;55.752;37.884;2023-11-18T12:13:08;99909.63;;;30.36;25.04
54816;BME280;40715;55.752;37.884;2023-11-18T12:15:53;99911.69;;;30.42;24.70
54816;BME280;40715;55.752;37.884;2023-11-18T12:18:24;99898.44;;;30.39;24.31
54816;BME280;40715;55.752;37.884;2023-11-18T12:20:51;99909.31;;;30.39;23.74
54816;BME280;40715;55.752;37.884;2023-11-18T12:23:23;99905.34;;;30.33;23.19
54816;BME280;40715;55.752;37.884;2023-11-18T12:25:52;99906.91;;;30.36;23.01
54816;BME280;40715;55.752;37.884;2023-11-18T12:28:27;99900.06;;;30.32;22.82
54816;BME280;40715;55.752;37.884;2023-11-18T12:30:57;99909.22;;;30.30;22.55
54816;BME280;40715;55.752;37.884;2023-11-18T12:42:04;99903.53;;;30.24;20.84
54816;BME280;40715;55.752;37.884;2023-11-18T12:44:38;99910.28;;;30.20;21.02
54816;BME280;40715;55.752;37.884;2023-11-18T12:47:16;99906.41;;;30.22;20.66
54816;BME280;40715;55.752;37.884;2023-11-18T12:49:48;99912.31;;;30.18;20.34
54816;BME280;40715;55.752;37.884;2023-11-18T12:52:22;99902.44;;;30.17;20.08
54816;BME280;40715;55.752;37.884;2023-11-18T12:54:50;99917.75;;;30.18;20.20
54816;BME280;40715;55.752;37.884;2023-11-18T12:57:29;99908.88;;;30.16;20.27
54816;BME280;40715;55.752;37.884;2023-11-18T12:59:59;99923.50;;;30.15;19.98
54816;BME280;40715;55.752;37.884;2023-11-18T13:02:28;99913.94;;;30.10;19.76
54816;BME280;40715;55.752;37.884;2023-11-18T13:04:55;99919.53;;;30.09;19.54
54816;BME280;40715;55.752;37.884;2023-11-18T13:07:22;99912.22;;;30.09;19.61
54816;BME280;40715;55.752;37.884;2023-11-18T13:09:51;99912.94;;;30.11;19.66
54816;BME280;40715;55.752;37.884;2023-11-18T13:12:22;99915.34;;;30.15;19.50
54816;BME280;40715;55.752;37.884;2023-11-18T13:14:50;99912.41;;;30.26;19.77
54816;BME280;40715;55.752;37.884;2023-11-18T13:17:18;99913.34;;;30.35;19.92
54816;BME280;40715;55.752;37.884;2023-11-18T13:19:45;99917.47;;;30.39;19.75
54816;BME280;40715;55.752;37.884;2023-11-18T13:22:14;99917.84;;;30.44;19.96
54816;BME280;40715;55.752;37.884;2023-11-18T13:24:42;99918.94;;;30.51;20.06
54816;BME280;40715;55.752;37.884;2023-11-18T13:27:14;99918.50;;;30.56;20.17
54816;BME280;40715;55.752;37.884;2023-11-18T13:29:49;99921.91;;;30.58;20.51